MAPA DE AEROPUERTO

INFORMACIÓN METAR y TAF


Deprecated: The each() function is deprecated. This message will be suppressed on further calls in /home/customer/www/clickair-va.com/public_html/VAM/vam/helpers/get_metar.php on line 20
METAR FOR FMMI
ADDS - METARS form results

(0408 UTC 25 May 2022)
Data provider http://aviationweather.gov/metar/data/
 
METAR text: FMMI 250400Z VRB02KT 0250 R11/0300N FG VV003 13/13 Q1023 NOSIG
Conditions at: FMMI (ANTANANARIVO/IVA, MG) observed 0400 UTC 25 May 2022
Temperature: 13.0°C (55°F)
Dewpoint: 13.0°C (55°F) [RH = 100%]
Pressure (altimeter): 30.21 inches Hg (1023.0 mb)
Winds: variable direction winds at 2 MPH (2 knots; 1.0 m/s)
Visibility: 0.16 miles (0.26 km)
Ceiling: indefinite ceiling with vertical visibility of 300 feet AGL
Clouds: obscured sky
Weather: FG  (fog)

METAR text: FMMI 250349Z VRB02KT 0250 R11/0300N FG VV003 13/13 Q1023 NOSIG
Conditions at: FMMI (ANTANANARIVO/IVA, MG) observed 0349 UTC 25 May 2022
Temperature: 13.0°C (55°F)
Dewpoint: 13.0°C (55°F) [RH = 100%]
Pressure (altimeter): 30.21 inches Hg (1023.0 mb)
Winds: variable direction winds at 2 MPH (2 knots; 1.0 m/s)
Visibility: 0.16 miles (0.26 km)
Ceiling: indefinite ceiling with vertical visibility of 300 feet AGL
Clouds: obscured sky
Weather: FG  (fog)

METAR text: FMMI 250342Z 15002KT 0400 FG R11/0300 VV003 13/13 Q1022 NOSIG
Conditions at: FMMI (ANTANANARIVO/IVA, MG) observed 0342 UTC 25 May 2022
Temperature: 13.0°C (55°F)
Dewpoint: 13.0°C (55°F) [RH = 100%]
Pressure (altimeter): 30.18 inches Hg (1022.0 mb)
Winds: from the SSE (150 degrees) at 2 MPH (2 knots; 1.0 m/s)
Visibility: 0.25 miles (0.40 km)
Ceiling: indefinite ceiling with vertical visibility of 300 feet AGL
Clouds: obscured sky
Weather: FG  (fog)

METAR text: FMMI 250332Z 21003KT 0400 FG R11/0175 VV003 13/13 Q1022 NOSIG
Conditions at: FMMI (ANTANANARIVO/IVA, MG) observed 0332 UTC 25 May 2022
Temperature: 13.0°C (55°F)
Dewpoint: 13.0°C (55°F) [RH = 100%]
Pressure (altimeter): 30.18 inches Hg (1022.0 mb)
Winds: from the SSW (210 degrees) at 3 MPH (3 knots; 1.5 m/s)
Visibility: 0.25 miles (0.40 km)
Ceiling: indefinite ceiling with vertical visibility of 300 feet AGL
Clouds: obscured sky
Weather: FG  (fog)

METAR text: FMMI 250330Z 21003KT 0400 FG R11/250 VV003 13/13 Q1022 NOSIG
Conditions at: FMMI (ANTANANARIVO/IVA, MG) observed 0330 UTC 25 May 2022
Temperature: 13.0°C (55°F)
Dewpoint: 13.0°C (55°F) [RH = 100%]
Pressure (altimeter): 30.18 inches Hg (1022.0 mb)
Winds: from the SSW (210 degrees) at 3 MPH (3 knots; 1.5 m/s)
Visibility: 0.25 miles (0.40 km)
Ceiling: indefinite ceiling with vertical visibility of 300 feet AGL
Clouds: obscured sky
Weather: FG  (fog)

METAR text: FMMI 250324Z VRB03KT 400 FG R11/0450 VV003 13/13 Q1022 NOSIG
Conditions at: FMMI (ANTANANARIVO/IVA, MG) observed 0324 UTC 25 May 2022
Temperature: 13.0°C (55°F)
Dewpoint: 13.0°C (55°F) [RH = 100%]
Pressure (altimeter): 30.18 inches Hg (1022.0 mb)
Winds: variable direction winds at 3 MPH (3 knots; 1.5 m/s)
Visibility: 0.28 miles (0.45 km)
Ceiling: indefinite ceiling with vertical visibility of 300 feet AGL
Clouds: obscured sky
Weather: FG  (fog)

Forecast for: FMMI (ANTANANARIVO/IVA, MG)
Text: TAF FMMI 242300Z 2500/2606 12005KT 9999 FEW017 SCT020
Forecast period: 0000 UTC 25 May 2022 to 0600 UTC 26 May 2022
Forecast type: FROM: standard forecast or significant change
Winds: from the ESE (120 degrees) at 6 MPH (5 knots; 2.6 m/s)
Visibility: 6 or more miles (10+ km)
Ceiling: at least 12,000 feet AGL
Clouds: few clouds at 1700 feet AGL
scattered clouds at 2000 feet AGL
Weather: no significant weather forecast for this period
Text: PROB40 2500/2505 0500 FG BKN004
Forecast period: 0000 to 0500 UTC 25 May 2022
Forecast type: PROBABLE: 40 percent likelihood of the following during this time
Visibility: 0.31 miles (0.50 km)
Ceiling: 400 feet AGL
Clouds: broken clouds at 400 feet AGL
Weather: FG  (fog)
Text: PROB30 2600/2605 2000 BR BKN006
Forecast period: 0000 to 0500 UTC 26 May 2022
Forecast type: PROBABLE: 30 percent likelihood of the following during this time
Visibility: 1.24 miles (2.00 km)
Ceiling: 600 feet AGL
Clouds: broken clouds at 600 feet AGL
Weather: BR  (mist)